Time;durP1;ratioP1;P1;durP2;ratioP2;P2;SDS_P1;SDS_P2;PMS_P1;PMS_P2;Temp;Humidity;BMP_temperature;BMP_pressure;BME280_temperature;BME280_humidity;BME280_pressure;Samples;Min_cycle;Max_cycle;Signal;HPM_P1;HPM_P2
2023/10/12 00:01:59;;;;;;;;;;;;;;;30.23;75.61;101123.47;5038278;28;69628;-40
2023/10/12 00:04:43;;;;;;;;;;;;;;;30.21;77.94;101126.34;5038396;28;66661;-41
2023/10/12 00:07:16;;;;;;;;;;;;;;;30.19;79.18;101127.59;5037204;28;70328;-41
2023/10/12 00:10:00;;;;;;;;;;;;;;;30.13;79.56;101145.50;5040744;28;66767;-41
2023/10/12 00:12:34;;;;;;;;;;;;;;;30.09;80.23;101152.38;5041421;28;70292;-41
2023/10/12 00:15:22;;;;;;;;;;;;;;;30.09;80.48;101148.81;5046343;28;66617;-39
2023/10/12 00:18:08;;;;;;;;;;;;;;;30.12;80.43;101162.78;5041501;28;69793;-39
2023/10/12 00:20:38;;;;;;;;;;;;;;;30.08;80.46;101158.81;5042059;28;66974;-39
2023/10/12 00:23:14;;;;;;;;;;;;;;;30.08;80.88;101161.50;5044276;28;69672;-41
2023/10/12 00:25:47;;;;;;;;;;;;;;;30.04;81.22;101171.94;5045698;28;65508;-42
2023/10/12 00:28:19;;;;;;;;;;;;;;;30.07;80.72;101178.81;5041982;28;70269;-41
2023/10/12 00:30:50;;;;;;;;;;;;;;;30.13;79.27;101175.25;5052830;28;66756;-40
2023/10/12 00:33:21;;;;;;;;;;;;;;;30.18;79.52;101186.28;5045652;28;70928;-40
2023/10/12 00:35:57;;;;;;;;;;;;;;;30.23;78.47;101170.28;5041522;28;66869;-41
2023/10/12 00:38:30;;;;;;;;;;;;;;;30.28;78.57;101173.22;5044657;28;68713;-41
2023/10/12 00:41:03;;;;;;;;;;;;;;;30.34;78.05;101168.84;5040114;28;66827;-40
2023/10/12 00:43:49;;;;;;;;;;;;;;;30.39;78.07;101176.31;5054915;28;69811;-40
2023/10/12 00:46:33;;;;;;;;;;;;;;;30.43;76.33;101166.75;5039856;28;65322;-39
2023/10/12 00:49:27;;;;;;;;;;;;;;;30.49;74.02;101176.72;5044203;28;70437;-39
2023/10/12 00:52:07;;;;;;;;;;;;;;;30.53;72.69;101180.66;5034904;28;66044;-39
2023/10/12 00:57:11;;;;;;;;;;;;;;;30.62;71.69;101189.38;5039105;28;66966;-40
2023/10/12 00:59:43;;;;;;;;;;;;;;;30.65;70.59;101189.81;5036614;28;70911;-40
2023/10/12 01:02:15;;;;;;;;;;;;;;;30.68;70.44;101189.38;5041569;28;65923;-40
2023/10/12 01:04:48;;;;;;;;;;;;;;;30.71;70.57;101188.13;5039832;28;70530;-39
2023/10/12 01:07:25;;;;;;;;;;;;;;;30.73;69.97;101192.28;5052427;28;66894;-39
2023/10/12 01:10:07;;;;;;;;;;;;;;;30.76;69.89;101193.75;5037860;28;69920;-39
2023/10/12 01:12:37;;;;;;;;;;;;;;;30.79;69.83;101187.09;5034232;28;66978;-40
2023/10/12 01:15:11;;;;;;;;;;;;;;;30.81;69.49;101180.41;5037335;28;69512;-39
2023/10/12 01:17:41;;;;;;;;;;;;;;;30.84;69.58;101179.16;5043235;28;66008;-40
2023/10/12 01:20:16;;;;;;;;;;;;;;;30.87;69.16;101173.31;5038469;28;70336;-39
2023/10/12 01:22:47;;;;;;;;;;;;;;;30.86;69.29;101169.78;5039993;28;66623;-40
2023/10/12 01:25:20;;;;;;;;;;;;;;;30.88;68.80;101175.81;5036963;28;70356;-39
2023/10/12 01:27:53;;;;;;;;;;;;;;;30.91;69.16;101179.97;5037677;28;65647;-41
2023/10/12 01:30:23;;;;;;;;;;;;;;;30.92;68.67;101187.91;5038850;28;69880;-41
2023/10/12 01:32:59;;;;;;;;;;;;;;;30.94;68.40;101190.38;5053119;28;66150;-39
2023/10/12 01:35:33;;;;;;;;;;;;;;;30.95;68.65;101175.78;5052291;28;70088;-40
2023/10/12 01:38:08;;;;;;;;;;;;;;;30.98;68.56;101185.38;5037383;28;66007;-39
2023/10/12 01:43:19;;;;;;;;;;;;;;;31.01;68.16;101180.38;5039875;28;67094;-40
2023/10/12 01:45:59;;;;;;;;;;;;;;;31.03;68.25;101177.44;5054317;28;70239;-40
2023/10/12 01:48:33;;;;;;;;;;;;;;;31.05;68.44;101176.16;5040220;28;66173;-40
2023/10/12 01:51:14;;;;;;;;;;;;;;;31.06;68.23;101188.66;5036836;28;69278;-39
2023/10/12 01:53:44;;;;;;;;;;;;;;;31.07;68.17;101184.94;5056184;28;66043;-40
2023/10/12 01:56:15;;;;;;;;;;;;;;;31.10;68.18;101184.50;5039409;28;69547;-40
2023/10/12 01:58:48;;;;;;;;;;;;;;;31.12;68.12;101187.84;5047120;28;66124;-39
2023/10/12 02:01:20;;;;;;;;;;;;;;;31.13;68.18;101189.47;5053749;28;70543;-40
2023/10/12 02:04:02;;;;;;;;;;;;;;;31.15;67.99;101176.56;5051194;28;66159;-41
2023/10/12 02:06:32;;;;;;;;;;;;;;;31.19;68.13;101181.53;5038944;28;69838;-40
2023/10/12 02:09:11;;;;;;;;;;;;;;;31.20;67.51;101184.03;5040601;28;66139;-39
2023/10/12 02:11:44;;;;;;;;;;;;;;;31.22;67.98;101172.97;5038075;28;70784;-39
2023/10/12 02:14:23;;;;;;;;;;;;;;;31.24;67.61;101168.19;5039667;28;65513;-40
2023/10/12 02:16:53;;;;;;;;;;;;;;;31.26;67.47;101171.50;5038911;28;70491;-41
2023/10/12 02:19:39;;;;;;;;;;;;;;;31.28;67.66;101172.09;5039903;28;66291;-40
2023/10/12 02:22:28;;;;;;;;;;;;;;;31.30;67.49;101167.31;5039426;28;70067;-40
2023/10/12 02:25:18;;;;;;;;;;;;;;;31.31;67.78;101161.66;5039532;28;66672;-40
2023/10/12 02:27:54;;;;;;;;;;;;;;;31.34;67.47;101157.69;5039245;28;70144;-40
2023/10/12 02:30:30;;;;;;;;;;;;;;;31.35;67.54;101151.25;5038214;28;66861;-39
2023/10/12 02:33:07;;;;;;;;;;;;;;;31.38;67.38;101142.69;5056108;28;43977;-39
2023/10/12 02:35:37;;;;;;;;;;;;;;;31.38;67.27;101127.25;5039147;28;66522;-41
2023/10/12 02:38:08;;;;;;;;;;;;;;;31.41;67.31;101131.41;5035495;28;70301;-40
2023/10/12 02:40:41;;;;;;;;;;;;;;;31.44;67.05;101120.13;5038560;28;65321;-40
2023/10/12 02:43:11;;;;;;;;;;;;;;;31.46;67.27;101123.47;5034505;28;70140;-40
2023/10/12 02:45:42;;;;;;;;;;;;;;;31.47;67.11;101114.28;5036331;28;66922;-41
2023/10/12 02:48:23;;;;;;;;;;;;;;;31.50;66.99;101118.44;5038834;28;69056;-40
2023/10/12 02:51:06;;;;;;;;;;;;;;;31.52;66.80;101117.16;5041347;28;66654;-40
2023/10/12 02:53:39;;;;;;;;;;;;;;;31.55;67.07;101115.88;5037391;28;70394;-40
2023/10/12 02:56:09;;;;;;;;;;;;;;;31.57;66.91;101109.19;5038360;28;66093;-40
2023/10/12 02:58:44;;;;;;;;;;;;;;;31.58;66.81;101116.28;5038134;28;69713;-41
2023/10/12 03:01:21;;;;;;;;;;;;;;;31.60;66.90;101114.19;5039340;28;66621;-40
2023/10/12 03:03:54;;;;;;;;;;;;;;;31.61;66.92;101115.84;5053948;28;70596;-41
2023/10/12 03:06:25;;;;;;;;;;;;;;;31.66;66.69;101117.06;5030979;28;65996;-40
2023/10/12 03:09:13;;;;;;;;;;;;;;;31.66;66.69;101100.81;5035892;28;69654;-39
2023/10/12 03:11:43;;;;;;;;;;;;;;;31.69;66.71;101111.19;5039860;28;66572;-41
2023/10/12 03:14:15;;;;;;;;;;;;;;;31.70;66.45;101107.44;5047765;28;69612;-41
2023/10/12 03:16:47;;;;;;;;;;;;;;;31.72;66.62;101106.16;5036869;28;65986;-41
2023/10/12 03:19:18;;;;;;;;;;;;;;;31.75;66.78;101110.31;5053321;28;69767;-41
2023/10/12 03:21:48;;;;;;;;;;;;;;;31.78;66.70;101112.59;5054743;28;65515;-40
2023/10/12 03:24:21;;;;;;;;;;;;;;;31.78;66.60;101107.97;5036057;28;70402;-40
2023/10/12 03:27:25;;;;;;;;;;;;;;;31.81;66.64;101106.72;5039314;28;66718;-40
2023/10/12 03:30:00;;;;;;;;;;;;;;;31.84;66.31;101103.56;5037145;28;69913;-42
2023/10/12 03:32:31;;;;;;;;;;;;;;;31.87;66.42;101096.84;5039986;28;66173;-41
2023/10/12 03:35:04;;;;;;;;;;;;;;;31.88;66.40;101099.38;5036608;28;70929;-40
2023/10/12 03:37:45;;;;;;;;;;;;;;;31.89;66.44;101092.88;5035966;28;67009;-45
2023/10/12 03:43:10;;;;;;;;;;;;;;;31.93;66.42;101087.84;5038746;28;67178;-40
2023/10/12 03:51:25;;;;;;;;;;;;;;;31.99;66.62;101068.00;5039845;28;70411;-40
2023/10/12 03:54:11;;;;;;;;;;;;;;;32.00;66.65;101058.78;5041832;28;67106;-39
2023/10/12 03:56:41;;;;;;;;;;;;;;;32.03;66.28;101061.06;5040854;28;70207;-40
2023/10/12 03:59:12;;;;;;;;;;;;;;;32.04;66.33;101050.00;5042330;28;65434;-40
2023/10/12 04:01:43;;;;;;;;;;;;;;;32.06;66.22;101047.03;5040065;28;71273;-39
2023/10/12 04:04:28;;;;;;;;;;;;;;;32.09;66.29;101046.59;5041132;28;66956;-39
2023/10/12 04:09:31;;;;;;;;;;;;;;;32.12;66.22;101037.16;5047253;28;68295;-40
2023/10/12 04:12:35;;;;;;;;;;;;;;;32.15;66.16;101039.41;5041573;28;69503;-39
2023/10/12 04:15:26;;;;;;;;;;;;;;;32.18;66.25;101033.53;5042412;28;65234;-41
2023/10/12 04:17:59;;;;;;;;;;;;;;;32.19;66.19;101036.03;5041420;28;70586;-39
2023/10/12 04:20:29;;;;;;;;;;;;;;;32.21;66.08;101022.25;5042357;28;66985;-40
2023/10/12 04:25:49;;;;;;;;;;;;;;;32.25;66.00;101018.84;5001008;28;66076;-40
2023/10/12 04:28:32;;;;;;;;;;;;;;;32.28;65.82;101018.41;4999725;28;70361;-39
2023/10/12 04:39:16;;;;;;;;;;;;;;;32.35;65.88;101007.47;5002653;28;70934;-40
2023/10/12 04:47:10;;;;;;;;;;;;;;;32.40;65.83;100979.63;5001504;28;66070;-41
2023/10/12 04:57:27;;;;;;;;;;;;;;;32.46;65.54;100976.88;4997929;28;67106;-40
2023/10/12 05:00:48;;;;;;;;;;;;;;;32.49;65.46;100970.97;4992938;28;69165;-40
2023/10/12 05:03:02;;;;;;;;;;;;;;;32.51;65.37;100965.31;5007065;28;66668;-41
2023/10/12 05:05:55;;;;;;;;;;;;;;;32.53;65.35;100965.09;5003064;28;70529;-41
2023/10/12 05:08:23;;;;;;;;;;;;;;;32.55;65.20;100954.84;4994460;28;66031;-40
2023/10/12 05:10:52;;;;;;;;;;;;;;;32.56;65.30;100949.16;5033637;28;70280;-40
2023/10/12 05:13:23;;;;;;;;;;;;;;;32.58;65.21;100947.03;5002504;28;66698;-40
2023/10/12 05:15:55;;;;;;;;;;;;;;;32.60;65.46;100939.50;5002136;28;70355;-45
2023/10/12 05:18:25;;;;;;;;;;;;;;;32.61;65.07;100930.28;5004039;28;66546;-40
2023/10/12 05:20:55;;;;;;;;;;;;;;;32.64;65.06;100934.44;5001894;28;70088;-40
2023/10/12 05:23:25;;;;;;;;;;;;;;;32.64;65.26;100931.72;5002156;28;65744;-40
2023/10/12 05:28:30;;;;;;;;;;;;;;;32.69;65.03;100910.94;5018864;28;66944;-39
2023/10/12 05:36:11;;;;;;;;;;;;;;;32.75;64.90;100898.31;5021985;28;70734;-41
2023/10/12 05:39:05;;;;;;;;;;;;;;;32.76;64.91;100885.56;5020014;28;66744;-41
2023/10/12 05:41:39;;;;;;;;;;;;;;;32.79;64.73;100887.81;5020810;28;70124;-41
2023/10/12 05:44:09;;;;;;;;;;;;;;;32.79;64.82;100879.66;5021840;28;65232;-39
2023/10/12 05:46:40;;;;;;;;;;;;;;;32.82;64.88;100871.03;5020441;28;69770;-39
2023/10/12 05:49:13;;;;;;;;;;;;;;;32.85;64.68;100868.72;5021857;28;66476;-40
2023/10/12 05:51:44;;;;;;;;;;;;;;;32.88;64.63;100865.53;5018939;28;70627;-40
2023/10/12 05:54:20;;;;;;;;;;;;;;;32.89;64.57;100864.44;5022153;28;65952;-40
2023/10/12 05:56:51;;;;;;;;;;;;;;;32.90;64.60;100857.97;5019915;28;69883;-39
2023/10/12 05:59:24;;;;;;;;;;;;;;;32.92;64.70;100847.66;5020296;28;66442;-40
2023/10/12 06:02:01;;;;;;;;;;;;;;;32.94;64.39;100836.59;5021420;28;69835;-40
2023/10/12 06:04:31;;;;;;;;;;;;;;;32.96;64.55;100833.59;5019949;28;66509;-40
2023/10/12 06:07:03;;;;;;;;;;;;;;;32.98;64.53;100826.88;5019494;28;70083;-41
2023/10/12 06:09:35;;;;;;;;;;;;;;;33.03;64.69;100831.66;5019393;28;66593;-40
2023/10/12 06:12:10;;;;;;;;;;;;;;;33.05;64.35;100824.09;5020532;28;70391;-40
2023/10/12 06:14:46;;;;;;;;;;;;;;;33.07;64.52;100811.94;5022103;28;66912;-40
2023/10/12 06:17:28;;;;;;;;;;;;;;;33.11;64.47;100812.28;5019932;28;69475;-40
2023/10/12 06:20:07;;;;;;;;;;;;;;;33.17;64.18;100799.63;5018985;28;65524;-40
2023/10/12 06:22:40;;;;;;;;;;;;;;;33.19;64.26;100798.31;5017010;28;70776;-40
2023/10/12 06:25:17;;;;;;;;;;;;;;;33.21;64.37;100798.06;5031625;28;66643;-40
2023/10/12 06:27:50;;;;;;;;;;;;;;;33.24;63.79;100793.00;5039159;28;69793;-40
2023/10/12 06:30:23;;;;;;;;;;;;;;;33.27;63.75;100795.25;5039178;28;66942;-42
2023/10/12 06:32:58;;;;;;;;;;;;;;;33.28;63.90;100788.72;5038352;28;70041;-40
2023/10/12 06:35:33;;;;;;;;;;;;;;;33.31;63.82;100785.53;5039429;28;66185;-40
2023/10/12 06:38:15;;;;;;;;;;;;;;;33.32;63.70;100779.03;5039670;28;69911;-39
2023/10/12 06:40:48;;;;;;;;;;;;;;;33.33;63.62;100769.81;5041072;28;66462;-40
2023/10/12 06:45:57;;;;;;;;;;;;;;;33.38;63.78;100775.34;5040038;28;66940;-41
2023/10/12 06:51:02;;;;;;;;;;;;;;;33.42;63.45;100766.72;5039474;28;66742;-41
2023/10/12 06:53:36;;;;;;;;;;;;;;;33.43;63.57;100757.47;5041008;28;70845;-40
2023/10/12 07:04:36;;;;;;;;;;;;;;;33.50;63.02;100747.31;5040963;28;69667;-40
2023/10/12 07:07:11;;;;;;;;;;;;;;;33.53;63.30;100735.97;5041411;28;66845;-39
2023/10/12 07:09:48;;;;;;;;;;;;;;;33.55;62.81;100733.84;5040787;28;69772;-40
2023/10/12 07:12:18;;;;;;;;;;;;;;;33.60;62.83;100728.50;5038820;28;66689;-39
2023/10/12 07:14:52;;;;;;;;;;;;;;;33.64;62.64;100734.28;5040629;28;70267;-39
2023/10/12 07:17:31;;;;;;;;;;;;;;;33.65;63.09;100717.69;5039240;28;66697;-39
2023/10/12 07:20:01;;;;;;;;;;;;;;;33.69;62.54;100723.50;5041835;28;70061;-40
2023/10/12 07:22:36;;;;;;;;;;;;;;;33.73;62.60;100716.50;5046781;28;66121;-40
2023/10/12 07:25:07;;;;;;;;;;;;;;;33.75;62.52;100717.91;5045738;28;70823;-40
2023/10/12 07:27:49;;;;;;;;;;;;;;;33.77;62.54;100721.22;5046795;28;67065;-39
2023/10/12 07:30:32;;;;;;;;;;;;;;;33.80;62.59;100715.28;5045115;28;69177;-41
2023/10/12 07:33:07;;;;;;;;;;;;;;;33.83;62.27;100702.25;5046790;28;65939;-40
2023/10/12 07:35:42;;;;;;;;;;;;;;;33.88;62.79;100699.59;5042901;28;69475;-40
2023/10/12 07:38:28;;;;;;;;;;;;;;;33.91;61.97;100693.69;5042942;28;66587;-39
2023/10/12 07:41:00;;;;;;;;;;;;;;;33.94;62.30;100693.22;5045657;28;70546;-46
2023/10/12 07:43:32;;;;;;;;;;;;;;;33.96;62.02;100691.91;5047129;28;66461;-40
2023/10/12 07:46:45;;;;;;;;;;;;;;;33.98;62.03;100681.56;5045794;28;70131;-39
2023/10/12 07:49:10;;;;;;;;;;;;;;;34.02;62.25;100669.13;5042792;28;65907;-40
2023/10/12 07:51:54;;;;;;;;;;;;;;;34.06;61.94;100674.94;5042032;28;67610;-40
2023/10/12 07:57:12;;;;;;;;;;;;;;;34.14;61.76;100665.53;5044286;28;71116;-40
2023/10/12 08:05:43;;;;;;;;;;;;;;;34.19;62.10;100652.81;5018292;28;66134;-40
2023/10/12 08:08:33;;;;;;;;;;;;;;;34.22;62.06;100646.06;5038927;28;69683;-39
2023/10/12 08:11:10;;;;;;;;;;;;;;;34.24;61.47;100647.47;5039729;28;66498;-40
2023/10/12 08:13:47;;;;;;;;;;;;;;;34.26;61.94;100648.03;5042274;28;71253;-39
2023/10/12 08:16:25;;;;;;;;;;;;;;;34.28;61.43;100649.69;5041502;28;66145;-40
2023/10/12 08:21:31;;;;;;;;;;;;;;;34.31;61.97;100662.81;5042789;28;66523;-40
2023/10/12 08:37:27;;;;;;;;;;;;;;;34.37;61.27;100713.53;5038882;28;66245;-39
2023/10/12 08:45:15;;;;;;;;;;;;;;;34.38;62.02;100671.59;5039133;28;70042;-39
2023/10/12 08:47:48;;;;;;;;;;;;;;;34.35;62.68;100672.94;5039798;28;66915;-41
2023/10/12 08:52:51;;;;;;;;;;;;;;;34.34;62.71;100675.91;5036790;28;66801;-39
2023/10/12 08:55:25;;;;;;;;;;;;;;;34.36;62.42;100679.22;5038681;28;70439;-41
2023/10/12 08:58:38;;;;;;;;;;;;;;;34.33;62.20;100679.72;5051367;28;66550;-40
2023/10/12 09:01:08;;;;;;;;;;;;;;;34.29;62.90;100684.81;5046506;28;70645;-39
2023/10/12 09:03:44;;;;;;;;;;;;;;;34.28;62.34;100688.63;5040657;28;65514;-40
2023/10/12 09:06:29;;;;;;;;;;;;;;;34.26;62.63;100691.56;5039264;28;70468;-39
2023/10/12 09:09:00;;;;;;;;;;;;;;;34.24;62.47;100699.19;5038017;28;67172;-40
2023/10/12 09:11:39;;;;;;;;;;;;;;;34.24;62.34;100698.34;5041097;28;70343;-39
2023/10/12 09:14:16;;;;;;;;;;;;;;;34.20;62.57;100719.81;5040435;28;67178;-40
2023/10/12 09:16:53;;;;;;;;;;;;;;;34.19;62.31;100733.69;5041278;28;69180;-39
2023/10/12 09:19:28;;;;;;;;;;;;;;;34.16;62.90;100721.38;5040525;28;66629;-41
2023/10/12 09:22:03;;;;;;;;;;;;;;;34.14;63.02;100726.25;5041487;28;68705;-40
2023/10/12 09:24:36;;;;;;;;;;;;;;;34.07;64.14;100735.63;5041381;28;65596;-40
2023/10/12 09:27:14;;;;;;;;;;;;;;;33.77;65.79;100732.09;5039290;28;71439;-40
2023/10/12 09:29:57;;;;;;;;;;;;;;;33.61;67.01;100743.75;5050698;28;66997;-41
2023/10/12 09:32:28;;;;;;;;;;;;;;;33.52;68.04;100805.00;5040085;28;70485;-40
2023/10/12 09:35:19;;;;;;;;;;;;;;;33.46;68.75;100795.06;5040263;28;66000;-40
2023/10/12 09:37:51;;;;;;;;;;;;;;;33.38;69.19;100788.13;5040118;28;70545;-41
2023/10/12 09:40:38;;;;;;;;;;;;;;;33.31;69.49;100781.97;5038872;28;65352;-41
2023/10/12 09:43:12;;;;;;;;;;;;;;;33.27;70.19;100759.91;5032402;28;69737;-42
2023/10/12 09:45:45;;;;;;;;;;;;;;;33.23;70.41;100745.13;5038104;28;66027;-42
2023/10/12 09:48:24;;;;;;;;;;;;;;;33.16;71.41;100768.91;5040692;28;70064;-40
2023/10/12 09:50:55;;;;;;;;;;;;;;;33.10;71.58;100765.25;5039835;28;66306;-42
2023/10/12 09:53:30;;;;;;;;;;;;;;;33.15;71.83;100762.66;5039919;28;70660;-44
2023/10/12 09:59:13;;;;;;;;;;;;;;;32.93;73.55;100775.97;5032913;28;70263;-40
2023/10/12 10:01:49;;;;;;;;;;;;;;;32.86;74.08;100786.13;5037405;28;66959;-40
2023/10/12 10:09:52;;;;;;;;;;;;;;;32.70;74.02;100863.69;5034983;28;70568;-41
2023/10/12 10:12:27;;;;;;;;;;;;;;;32.69;74.03;100877.53;5037664;28;66095;-40
2023/10/12 10:15:00;;;;;;;;;;;;;;;32.64;74.08;100875.50;5036745;28;70735;-41
2023/10/12 10:17:46;;;;;;;;;;;;;;;32.59;74.31;100850.09;5038491;28;66284;-40
2023/10/12 10:23:01;;;;;;;;;;;;;;;32.53;74.43;100883.63;5039421;28;66077;-41
2023/10/12 10:25:46;;;;;;;;;;;;;;;32.51;74.50;100908.28;5039550;28;69804;-40
2023/10/12 10:28:25;;;;;;;;;;;;;;;32.46;74.58;100916.31;5038614;28;67072;-39
2023/10/12 10:30:59;;;;;;;;;;;;;;;32.44;74.78;100908.34;5041228;28;69987;-40
2023/10/12 10:33:29;;;;;;;;;;;;;;;32.40;74.85;100901.75;5040746;28;65559;-41
2023/10/12 10:36:10;;;;;;;;;;;;;;;32.37;74.75;100888.59;5037485;28;69609;-40
2023/10/12 10:44:16;;;;;;;;;;;;;;;32.30;74.66;100911.50;5038872;28;66352;-40
2023/10/12 10:46:48;;;;;;;;;;;;;;;32.27;74.44;100929.88;5037953;28;69891;-41
2023/10/12 10:49:19;;;;;;;;;;;;;;;32.24;74.67;100929.53;5035924;28;66063;-40
2023/10/12 10:52:02;;;;;;;;;;;;;;;32.23;74.36;100938.69;5036390;28;70618;-40
2023/10/12 10:54:33;;;;;;;;;;;;;;;32.26;74.22;100943.66;5041742;28;66693;-42
2023/10/12 10:57:04;;;;;;;;;;;;;;;32.25;73.94;100944.75;5051591;28;71357;-44
2023/10/12 10:59:37;;;;;;;;;;;;;;;32.28;73.81;100950.53;5039678;28;66918;-43
2023/10/12 11:02:11;;;;;;;;;;;;;;;32.32;73.30;100948.22;5042095;28;70024;-44
2023/10/12 11:04:44;;;;;;;;;;;;;;;32.25;73.65;100972.69;5039849;28;66319;-42
2023/10/12 11:07:15;;;;;;;;;;;;;;;32.20;73.48;100982.59;5042494;28;70587;-41
2023/10/12 11:12:30;;;;;;;;;;;;;;;32.13;73.73;100971.81;5042728;28;69935;-41
2023/10/12 11:15:05;;;;;;;;;;;;;;;32.12;74.07;100980.19;5039493;28;66712;-41
2023/10/12 11:17:40;;;;;;;;;;;;;;;32.08;73.80;100973.56;5042548;28;70053;-41
2023/10/12 11:23:22;;;;;;;;;;;;;;;32.02;73.89;100956.28;5034174;28;70508;-42
2023/10/12 11:26:04;;;;;;;;;;;;;;;31.99;73.86;100960.28;5038579;28;65697;-42
2023/10/12 11:28:37;;;;;;;;;;;;;;;31.98;73.67;100974.91;5033991;28;70318;-42
2023/10/12 11:34:23;;;;;;;;;;;;;;;31.95;73.82;100996.22;5042611;28;70007;-42
2023/10/12 11:36:58;;;;;;;;;;;;;;;31.93;73.95;101014.59;5038589;28;66556;-43
2023/10/12 11:39:39;;;;;;;;;;;;;;;31.92;74.12;101021.91;5041257;28;69916;-43
2023/10/12 11:42:12;;;;;;;;;;;;;;;31.90;74.10;101037.59;5035632;28;67206;-50
2023/10/12 11:44:43;;;;;;;;;;;;;;;31.89;74.34;101040.50;5039389;28;69516;-43
2023/10/12 11:47:25;;;;;;;;;;;;;;;31.89;74.48;101052.19;5042246;28;65722;-43
2023/10/12 11:50:00;;;;;;;;;;;;;;;31.87;74.53;101042.59;5039764;28;69655;-43
2023/10/12 11:52:34;;;;;;;;;;;;;;;31.85;74.70;101056.41;5038471;28;66986;-42
2023/10/12 11:55:06;;;;;;;;;;;;;;;31.82;74.72;101054.97;5040163;28;69473;-42
2023/10/12 11:57:40;;;;;;;;;;;;;;;31.81;74.63;101066.03;5034596;28;66971;-42
2023/10/12 12:00:44;;;;;;;;;;;;;;;31.79;74.68;101065.44;5038296;28;70604;-42
2023/10/12 12:03:08;;;;;;;;;;;;;;;31.77;74.52;101062.94;5039318;28;66538;-43
2023/10/12 12:05:39;;;;;;;;;;;;;;;31.76;74.70;101068.56;5039728;28;70922;-42
2023/10/12 12:08:18;;;;;;;;;;;;;;;31.74;74.97;101076.13;5039089;28;65739;-41
2023/10/12 12:13:21;;;;;;;;;;;;;;;31.73;75.15;101077.16;5040315;28;66396;-42
2023/10/12 12:15:55;;;;;;;;;;;;;;;31.71;75.54;101054.88;5045294;28;70143;-42
2023/10/12 12:18:27;;;;;;;;;;;;;;;31.71;75.31;101057.59;5046804;28;66192;-42
2023/10/12 12:20:57;;;;;;;;;;;;;;;31.70;75.46;101058.63;5041742;28;70444;-42
2023/10/12 12:23:28;;;;;;;;;;;;;;;31.69;75.50;101056.97;5042142;28;66558;-43
2023/10/12 12:26:44;;;;;;;;;;;;;;;31.68;75.74;101061.56;5041117;28;69689;-42
2023/10/12 12:29:03;;;;;;;;;;;;;;;31.68;75.77;101058.00;5038779;28;66924;-42
2023/10/12 12:31:33;;;;;;;;;;;;;;;31.67;76.39;101065.31;5039609;28;69928;-43
2023/10/12 12:34:06;;;;;;;;;;;;;;;31.67;76.17;101080.75;5045005;28;66618;-42
2023/10/12 12:36:38;;;;;;;;;;;;;;;31.67;75.85;101097.03;5054295;28;70579;-42
2023/10/12 12:39:11;;;;;;;;;;;;;;;31.65;75.88;101109.97;5041197;28;65979;-42
2023/10/12 12:41:42;;;;;;;;;;;;;;;31.64;75.96;101125.41;5041962;28;69283;-43
2023/10/12 12:44:12;;;;;;;;;;;;;;;31.64;76.48;101130.00;5061259;28;65879;-41
2023/10/12 12:46:42;;;;;;;;;;;;;;;31.65;76.78;101128.94;5065064;28;70545;-42
2023/10/12 12:49:13;;;;;;;;;;;;;;;31.67;75.76;101140.41;5043409;28;65902;-42
2023/10/12 12:51:45;;;;;;;;;;;;;;;31.73;75.97;101143.09;5046645;28;69222;-41
2023/10/12 12:54:15;;;;;;;;;;;;;;;31.72;76.90;101151.44;5033816;28;66621;-42
2023/10/12 12:56:45;;;;;;;;;;;;;;;31.69;76.73;101162.72;5046414;28;70399;-42
2023/10/12 12:59:15;;;;;;;;;;;;;;;31.71;77.02;101163.34;5043648;28;66129;-43
2023/10/12 13:01:45;;;;;;;;;;;;;;;31.73;76.36;101167.50;5046995;28;70412;-42
2023/10/12 13:04:17;;;;;;;;;;;;;;;31.69;76.72;101170.88;5041940;28;66219;-42
2023/10/12 13:06:48;;;;;;;;;;;;;;;31.72;76.41;101178.56;5048659;28;70713;-43
2023/10/12 13:09:33;;;;;;;;;;;;;;;31.67;76.45;101172.97;5037550;28;65784;-41
2023/10/12 13:12:05;;;;;;;;;;;;;;;31.66;76.44;101163.16;5042359;28;70101;-43
2023/10/12 13:14:42;;;;;;;;;;;;;;;31.64;76.08;101165.25;5045722;28;67028;-42
2023/10/12 13:17:12;;;;;;;;;;;;;;;31.64;76.15;101163.38;5040561;28;70682;-42
2023/10/12 13:19:47;;;;;;;;;;;;;;;31.64;75.86;101157.13;5048936;28;66183;-42
2023/10/12 13:22:17;;;;;;;;;;;;;;;31.33;75.50;101128.94;5039081;28;70736;-41
2023/10/12 13:24:47;;;;;;;;;;;;;;;31.60;75.49;101189.28;5041985;28;66950;-43
2023/10/12 13:27:21;;;;;;;;;;;;;;;31.58;75.84;101200.34;5046534;28;70777;-42
2023/10/12 13:29:51;;;;;;;;;;;;;;;31.60;75.72;101211.81;5047469;28;67006;-41
2023/10/12 13:32:21;;;;;;;;;;;;;;;31.56;77.05;101218.69;5035128;28;70162;-42
2023/10/12 13:34:51;;;;;;;;;;;;;;;31.51;77.07;101229.38;5045401;28;66817;-42
2023/10/12 13:37:21;;;;;;;;;;;;;;;31.41;76.10;101234.44;5036616;28;70060;-43
2023/10/12 13:39:51;;;;;;;;;;;;;;;31.25;75.17;101234.88;5043135;28;65917;-40
2023/10/12 13:42:21;;;;;;;;;;;;;;;31.12;73.79;101231.19;5044996;28;69754;-41
2023/10/12 13:44:52;;;;;;;;;;;;;;;31.03;72.71;101229.72;5042639;28;66120;-41
2023/10/12 13:47:22;;;;;;;;;;;;;;;30.95;72.01;101238.09;5040128;28;69708;-42
2023/10/12 13:49:56;;;;;;;;;;;;;;;30.87;70.87;101227.47;5039995;28;65075;-39
2023/10/12 13:52:26;;;;;;;;;;;;;;;30.80;70.47;101218.56;5043545;28;69835;-38
2023/10/12 13:54:57;;;;;;;;;;;;;;;30.72;69.67;101204.16;5046914;28;65525;-41
2023/10/12 13:57:27;;;;;;;;;;;;;;;30.67;69.17;101201.28;5045698;28;69668;-40
2023/10/12 13:59:58;;;;;;;;;;;;;;;30.61;67.77;101190.44;5051286;28;65694;-40
2023/10/12 14:02:38;;;;;;;;;;;;;;;30.54;67.45;101190.47;5054220;28;70174;-40
2023/10/12 14:05:08;;;;;;;;;;;;;;;30.46;66.42;101188.78;5051172;28;67456;-40
2023/10/12 14:07:38;;;;;;;;;;;;;;;30.41;65.76;101190.47;5039094;28;69822;-40
2023/10/12 14:10:08;;;;;;;;;;;;;;;30.34;64.90;101189.63;5036570;28;65976;-40
2023/10/12 14:12:42;;;;;;;;;;;;;;;30.29;64.30;101198.41;5038849;28;69997;-40
2023/10/12 14:15:13;;;;;;;;;;;;;;;30.25;63.68;101208.78;5037832;28;65364;-45
2023/10/12 14:17:44;;;;;;;;;;;;;;;30.25;67.48;101211.50;5055061;28;69607;-42
2023/10/12 14:20:13;;;;;;;;;;;;;;;30.24;69.23;101223.38;5039661;28;66402;-43
2023/10/12 14:22:44;;;;;;;;;;;;;;;30.24;69.86;101222.53;5040616;28;69170;-44
2023/10/12 14:25:18;;;;;;;;;;;;;;;30.21;69.54;101221.03;5037813;28;66478;-42
2023/10/12 14:27:48;;;;;;;;;;;;;;;30.16;68.02;101220.84;5040644;28;69766;-42
2023/10/12 14:30:25;;;;;;;;;;;;;;;30.12;66.90;101235.00;5040097;28;65896;-42
2023/10/12 14:32:55;;;;;;;;;;;;;;;30.06;65.70;101247.44;5038830;28;69851;-43
2023/10/12 14:35:25;;;;;;;;;;;;;;;30.02;65.83;101251.63;5040621;28;66930;-41
2023/10/12 14:37:55;;;;;;;;;;;;;;;30.04;67.92;101260.38;5040534;28;69911;-44
2023/10/12 14:40:32;;;;;;;;;;;;;;;30.04;68.25;101265.78;5038975;28;66362;-44
2023/10/12 14:43:05;;;;;;;;;;;;;;;30.04;68.61;101266.59;5040155;28;69953;-44
2023/10/12 14:45:36;;;;;;;;;;;;;;;30.03;68.71;101281.19;5039793;28;66506;-44
2023/10/12 14:48:10;;;;;;;;;;;;;;;30.00;67.98;101286.97;5037563;28;69900;-42
2023/10/12 14:50:49;;;;;;;;;;;;;;;29.98;66.68;101288.25;5039657;28;66498;-42
2023/10/12 14:53:27;;;;;;;;;;;;;;;29.95;65.72;101288.63;5030376;28;70649;-41
2023/10/12 14:55:58;;;;;;;;;;;;;;;29.92;65.13;101289.03;5040635;28;65671;-40
2023/10/12 14:58:28;;;;;;;;;;;;;;;29.89;64.65;101282.16;5039517;28;69298;-41
2023/10/12 15:00:58;;;;;;;;;;;;;;;29.87;63.95;101280.72;5040513;28;66885;-42
2023/10/12 15:03:34;;;;;;;;;;;;;;;29.85;63.47;101283.63;5041210;28;69814;-42
2023/10/12 15:06:05;;;;;;;;;;;;;;;29.83;63.62;101291.09;5039481;28;66183;-40
2023/10/12 15:08:36;;;;;;;;;;;;;;;29.79;62.69;101293.38;5055254;28;69312;-41
2023/10/12 15:11:09;;;;;;;;;;;;;;;29.78;62.58;101291.72;5039799;28;65702;-43
2023/10/12 15:13:40;;;;;;;;;;;;;;;29.76;62.53;101295.66;5054568;28;70651;-39
2023/10/12 15:16:11;;;;;;;;;;;;;;;29.86;62.59;101287.16;5038293;28;66487;-40
2023/10/12 15:18:47;;;;;;;;;;;;;;;29.95;61.72;101285.94;5040870;28;70334;-41